sensor_id;sensor_type;location;lat;lon;timestamp;P1;durP1;ratioP1;P2;durP2;ratioP2
23718;SDS011;43322;52.230;5.702;2024-01-25T00:00:26;27.05;;;6.47;;
23718;SDS011;43322;52.230;5.702;2024-01-25T00:02:52;37.22;;;6.63;;
23718;SDS011;43322;52.230;5.702;2024-01-25T00:05:19;35.95;;;7.47;;
23718;SDS011;43322;52.230;5.702;2024-01-25T00:07:46;35.47;;;8.00;;
23718;SDS011;43322;52.230;5.702;2024-01-25T00:10:15;28.05;;;7.00;;
23718;SDS011;43322;52.230;5.702;2024-01-25T00:12:43;36.80;;;6.68;;
23718;SDS011;43322;52.230;5.702;2024-01-25T00:15:09;38.33;;;7.50;;
23718;SDS011;43322;52.230;5.702;2024-01-25T00:17:36;24.77;;;7.28;;
23718;SDS011;43322;52.230;5.702;2024-01-25T00:20:03;39.25;;;7.72;;
23718;SDS011;43322;52.230;5.702;2024-01-25T00:22:31;36.90;;;7.63;;
23718;SDS011;43322;52.230;5.702;2024-01-25T00:24:58;35.60;;;7.68;;
23718;SDS011;43322;52.230;5.702;2024-01-25T00:27:26;40.35;;;8.30;;
23718;SDS011;43322;52.230;5.702;2024-01-25T00:29:53;40.85;;;8.23;;
23718;SDS011;43322;52.230;5.702;2024-01-25T00:32:20;34.15;;;7.25;;
23718;SDS011;43322;52.230;5.702;2024-01-25T00:34:47;36.63;;;6.90;;
23718;SDS011;43322;52.230;5.702;2024-01-25T00:37:14;37.20;;;7.75;;
23718;SDS011;43322;52.230;5.702;2024-01-25T00:39:41;29.52;;;7.47;;
23718;SDS011;43322;52.230;5.702;2024-01-25T00:42:08;36.08;;;7.10;;
23718;SDS011;43322;52.230;5.702;2024-01-25T00:44:41;37.63;;;7.85;;
23718;SDS011;43322;52.230;5.702;2024-01-25T00:47:08;28.35;;;7.45;;
23718;SDS011;43322;52.230;5.702;2024-01-25T00:49:36;39.40;;;7.53;;
23718;SDS011;43322;52.230;5.702;2024-01-25T00:52:04;31.65;;;8.13;;
23718;SDS011;43322;52.230;5.702;2024-01-25T00:54:32;31.88;;;7.32;;
23718;SDS011;43322;52.230;5.702;2024-01-25T00:56:59;31.83;;;7.18;;
23718;SDS011;43322;52.230;5.702;2024-01-25T00:59:26;40.72;;;7.35;;
23718;SDS011;43322;52.230;5.702;2024-01-25T01:01:55;37.97;;;6.82;;
23718;SDS011;43322;52.230;5.702;2024-01-25T01:04:25;26.80;;;6.25;;
23718;SDS011;43322;52.230;5.702;2024-01-25T01:06:52;34.25;;;7.68;;
23718;SDS011;43322;52.230;5.702;2024-01-25T01:09:19;40.15;;;6.97;;
23718;SDS011;43322;52.230;5.702;2024-01-25T01:11:46;34.45;;;7.78;;
23718;SDS011;43322;52.230;5.702;2024-01-25T01:14:12;33.05;;;7.00;;
23718;SDS011;43322;52.230;5.702;2024-01-25T01:16:39;31.08;;;7.35;;
23718;SDS011;43322;52.230;5.702;2024-01-25T01:19:07;36.05;;;7.53;;
23718;SDS011;43322;52.230;5.702;2024-01-25T01:21:34;30.20;;;6.82;;
23718;SDS011;43322;52.230;5.702;2024-01-25T01:24:01;34.63;;;6.57;;
23718;SDS011;43322;52.230;5.702;2024-01-25T01:26:27;35.00;;;7.22;;
23718;SDS011;43322;52.230;5.702;2024-01-25T01:28:54;32.17;;;7.00;;
23718;SDS011;43322;52.230;5.702;2024-01-25T01:31:21;33.95;;;6.88;;
23718;SDS011;43322;52.230;5.702;2024-01-25T01:33:48;39.78;;;7.75;;
23718;SDS011;43322;52.230;5.702;2024-01-25T01:36:16;27.95;;;6.07;;
23718;SDS011;43322;52.230;5.702;2024-01-25T01:38:43;31.00;;;6.78;;
23718;SDS011;43322;52.230;5.702;2024-01-25T01:41:09;30.15;;;7.10;;
23718;SDS011;43322;52.230;5.702;2024-01-25T01:43:37;29.65;;;5.95;;
23718;SDS011;43322;52.230;5.702;2024-01-25T01:46:06;38.22;;;6.45;;
23718;SDS011;43322;52.230;5.702;2024-01-25T01:48:37;38.00;;;6.47;;
23718;SDS011;43322;52.230;5.702;2024-01-25T01:51:05;39.20;;;6.53;;
23718;SDS011;43322;52.230;5.702;2024-01-25T01:53:33;43.97;;;7.88;;
23718;SDS011;43322;52.230;5.702;2024-01-25T01:56:01;32.88;;;6.25;;
23718;SDS011;43322;52.230;5.702;2024-01-25T01:58:28;36.78;;;5.70;;
23718;SDS011;43322;52.230;5.702;2024-01-25T02:00:56;35.20;;;6.40;;
23718;SDS011;43322;52.230;5.702;2024-01-25T02:03:25;30.85;;;6.30;;
23718;SDS011;43322;52.230;5.702;2024-01-25T02:05:52;31.48;;;6.60;;
23718;SDS011;43322;52.230;5.702;2024-01-25T02:08:19;30.60;;;6.50;;
23718;SDS011;43322;52.230;5.702;2024-01-25T02:10:47;32.95;;;6.32;;
23718;SDS011;43322;52.230;5.702;2024-01-25T02:13:14;33.58;;;6.30;;
23718;SDS011;43322;52.230;5.702;2024-01-25T02:15:41;42.28;;;6.63;;
23718;SDS011;43322;52.230;5.702;2024-01-25T02:18:07;33.80;;;7.07;;
23718;SDS011;43322;52.230;5.702;2024-01-25T02:20:35;30.20;;;6.40;;
23718;SDS011;43322;52.230;5.702;2024-01-25T02:23:03;29.58;;;6.40;;
23718;SDS011;43322;52.230;5.702;2024-01-25T02:25:30;27.00;;;5.97;;
23718;SDS011;43322;52.230;5.702;2024-01-25T02:27:56;33.03;;;5.32;;
23718;SDS011;43322;52.230;5.702;2024-01-25T02:30:23;42.63;;;6.70;;
23718;SDS011;43322;52.230;5.702;2024-01-25T02:32:50;21.83;;;5.43;;
23718;SDS011;43322;52.230;5.702;2024-01-25T02:35:17;29.05;;;5.90;;
23718;SDS011;43322;52.230;5.702;2024-01-25T02:37:44;32.33;;;6.07;;
23718;SDS011;43322;52.230;5.702;2024-01-25T02:40:12;40.30;;;7.38;;
23718;SDS011;43322;52.230;5.702;2024-01-25T02:42:39;27.15;;;5.97;;
23718;SDS011;43322;52.230;5.702;2024-01-25T02:45:06;32.85;;;6.05;;
23718;SDS011;43322;52.230;5.702;2024-01-25T02:47:34;41.00;;;6.75;;
23718;SDS011;43322;52.230;5.702;2024-01-25T02:50:01;38.80;;;7.43;;
23718;SDS011;43322;52.230;5.702;2024-01-25T02:52:27;33.95;;;5.55;;
23718;SDS011;43322;52.230;5.702;2024-01-25T02:54:54;26.75;;;5.75;;
23718;SDS011;43322;52.230;5.702;2024-01-25T02:57:22;30.40;;;5.63;;
23718;SDS011;43322;52.230;5.702;2024-01-25T02:59:49;30.65;;;6.85;;
23718;SDS011;43322;52.230;5.702;2024-01-25T03:02:16;28.40;;;5.60;;
23718;SDS011;43322;52.230;5.702;2024-01-25T03:04:44;26.98;;;5.75;;
23718;SDS011;43322;52.230;5.702;2024-01-25T03:07:11;26.52;;;6.55;;
23718;SDS011;43322;52.230;5.702;2024-01-25T03:09:38;32.70;;;6.35;;
23718;SDS011;43322;52.230;5.702;2024-01-25T03:12:05;35.25;;;6.45;;
23718;SDS011;43322;52.230;5.702;2024-01-25T03:14:33;38.42;;;6.25;;
23718;SDS011;43322;52.230;5.702;2024-01-25T03:17:00;27.90;;;5.57;;
23718;SDS011;43322;52.230;5.702;2024-01-25T03:19:27;40.58;;;6.43;;
23718;SDS011;43322;52.230;5.702;2024-01-25T03:21:54;34.80;;;6.13;;
23718;SDS011;43322;52.230;5.702;2024-01-25T03:24:21;29.70;;;5.45;;
23718;SDS011;43322;52.230;5.702;2024-01-25T03:26:49;37.13;;;5.95;;
23718;SDS011;43322;52.230;5.702;2024-01-25T03:29:16;30.48;;;6.05;;
23718;SDS011;43322;52.230;5.702;2024-01-25T03:31:44;25.45;;;5.30;;
23718;SDS011;43322;52.230;5.702;2024-01-25T03:34:11;42.00;;;6.25;;
23718;SDS011;43322;52.230;5.702;2024-01-25T03:36:37;32.35;;;5.47;;
23718;SDS011;43322;52.230;5.702;2024-01-25T03:39:05;31.77;;;5.43;;
23718;SDS011;43322;52.230;5.702;2024-01-25T03:41:33;39.55;;;6.35;;
23718;SDS011;43322;52.230;5.702;2024-01-25T03:44:00;48.33;;;6.00;;
23718;SDS011;43322;52.230;5.702;2024-01-25T03:46:26;37.38;;;5.95;;
23718;SDS011;43322;52.230;5.702;2024-01-25T03:48:55;28.85;;;5.60;;
23718;SDS011;43322;52.230;5.702;2024-01-25T03:51:21;40.00;;;6.05;;
23718;SDS011;43322;52.230;5.702;2024-01-25T03:53:49;34.65;;;5.90;;
23718;SDS011;43322;52.230;5.702;2024-01-25T03:56:17;40.70;;;6.25;;
23718;SDS011;43322;52.230;5.702;2024-01-25T03:58:44;29.23;;;5.53;;
23718;SDS011;43322;52.230;5.702;2024-01-25T04:01:11;30.75;;;6.28;;
23718;SDS011;43322;52.230;5.702;2024-01-25T04:03:38;29.80;;;5.65;;
23718;SDS011;43322;52.230;5.702;2024-01-25T04:06:07;34.03;;;5.38;;
23718;SDS011;43322;52.230;5.702;2024-01-25T04:08:34;37.72;;;6.47;;
23718;SDS011;43322;52.230;5.702;2024-01-25T04:11:01;38.05;;;6.53;;
23718;SDS011;43322;52.230;5.702;2024-01-25T04:13:27;26.80;;;5.15;;
23718;SDS011;43322;52.230;5.702;2024-01-25T04:15:54;32.53;;;5.80;;
23718;SDS011;43322;52.230;5.702;2024-01-25T04:18:21;28.75;;;5.75;;
23718;SDS011;43322;52.230;5.702;2024-01-25T04:20:48;37.33;;;6.28;;
23718;SDS011;43322;52.230;5.702;2024-01-25T04:23:17;29.83;;;6.15;;
23718;SDS011;43322;52.230;5.702;2024-01-25T04:25:44;28.38;;;5.82;;
23718;SDS011;43322;52.230;5.702;2024-01-25T04:28:10;30.80;;;5.50;;
23718;SDS011;43322;52.230;5.702;2024-01-25T04:30:38;29.63;;;5.78;;
23718;SDS011;43322;52.230;5.702;2024-01-25T04:33:05;45.22;;;6.80;;
23718;SDS011;43322;52.230;5.702;2024-01-25T04:35:32;31.25;;;6.40;;
23718;SDS011;43322;52.230;5.702;2024-01-25T04:37:59;38.60;;;6.18;;
23718;SDS011;43322;52.230;5.702;2024-01-25T04:40:27;30.48;;;5.97;;
23718;SDS011;43322;52.230;5.702;2024-01-25T04:42:54;35.78;;;6.18;;
23718;SDS011;43322;52.230;5.702;2024-01-25T04:45:20;37.95;;;6.20;;
23718;SDS011;43322;52.230;5.702;2024-01-25T04:47:47;41.13;;;7.15;;
23718;SDS011;43322;52.230;5.702;2024-01-25T04:50:14;31.27;;;5.30;;
23718;SDS011;43322;52.230;5.702;2024-01-25T04:52:41;31.45;;;5.88;;
23718;SDS011;43322;52.230;5.702;2024-01-25T04:55:08;33.90;;;6.07;;
23718;SDS011;43322;52.230;5.702;2024-01-25T04:57:36;34.08;;;5.45;;
23718;SDS011;43322;52.230;5.702;2024-01-25T05:00:04;44.28;;;9.88;;
23718;SDS011;43322;52.230;5.702;2024-01-25T05:02:31;36.25;;;7.22;;
23718;SDS011;43322;52.230;5.702;2024-01-25T05:04:58;44.63;;;6.95;;
23718;SDS011;43322;52.230;5.702;2024-01-25T05:07:25;27.10;;;5.80;;
23718;SDS011;43322;52.230;5.702;2024-01-25T05:09:52;41.50;;;5.72;;
23718;SDS011;43322;52.230;5.702;2024-01-25T05:12:18;34.17;;;6.45;;
23718;SDS011;43322;52.230;5.702;2024-01-25T05:14:47;43.58;;;7.28;;
23718;SDS011;43322;52.230;5.702;2024-01-25T05:17:13;41.55;;;9.32;;
23718;SDS011;43322;52.230;5.702;2024-01-25T05:19:40;41.17;;;8.90;;
23718;SDS011;43322;52.230;5.702;2024-01-25T05:22:07;47.17;;;7.65;;
23718;SDS011;43322;52.230;5.702;2024-01-25T05:24:34;31.15;;;6.32;;
23718;SDS011;43322;52.230;5.702;2024-01-25T05:27:00;40.72;;;5.97;;
23718;SDS011;43322;52.230;5.702;2024-01-25T05:29:27;30.73;;;5.97;;
23718;SDS011;43322;52.230;5.702;2024-01-25T05:31:55;29.30;;;5.95;;
23718;SDS011;43322;52.230;5.702;2024-01-25T05:34:22;25.17;;;5.05;;
23718;SDS011;43322;52.230;5.702;2024-01-25T05:36:49;20.67;;;5.05;;
23718;SDS011;43322;52.230;5.702;2024-01-25T05:39:16;24.85;;;4.97;;
23718;SDS011;43322;52.230;5.702;2024-01-25T05:41:43;26.35;;;5.40;;
23718;SDS011;43322;52.230;5.702;2024-01-25T05:44:11;35.75;;;6.10;;
23718;SDS011;43322;52.230;5.702;2024-01-25T05:46:38;35.95;;;6.07;;
23718;SDS011;43322;52.230;5.702;2024-01-25T05:49:06;33.75;;;7.20;;
23718;SDS011;43322;52.230;5.702;2024-01-25T05:51:33;38.75;;;6.82;;
23718;SDS011;43322;52.230;5.702;2024-01-25T05:54:01;30.33;;;5.70;;
23718;SDS011;43322;52.230;5.702;2024-01-25T05:56:27;51.83;;;7.05;;
23718;SDS011;43322;52.230;5.702;2024-01-25T05:58:54;28.05;;;6.30;;
23718;SDS011;43322;52.230;5.702;2024-01-25T06:01:21;55.55;;;7.05;;
23718;SDS011;43322;52.230;5.702;2024-01-25T06:03:48;34.63;;;6.28;;
23718;SDS011;43322;52.230;5.702;2024-01-25T06:06:16;36.90;;;5.85;;
23718;SDS011;43322;52.230;5.702;2024-01-25T06:08:43;31.27;;;5.80;;
23718;SDS011;43322;52.230;5.702;2024-01-25T06:11:09;32.55;;;5.72;;
23718;SDS011;43322;52.230;5.702;2024-01-25T06:13:36;34.15;;;5.82;;
23718;SDS011;43322;52.230;5.702;2024-01-25T06:16:03;37.40;;;6.57;;
23718;SDS011;43322;52.230;5.702;2024-01-25T06:18:30;26.02;;;5.38;;
23718;SDS011;43322;52.230;5.702;2024-01-25T06:20:57;36.17;;;6.03;;
23718;SDS011;43322;52.230;5.702;2024-01-25T06:23:25;37.08;;;6.53;;
23718;SDS011;43322;52.230;5.702;2024-01-25T06:25:52;46.28;;;6.72;;
23718;SDS011;43322;52.230;5.702;2024-01-25T06:28:19;41.38;;;6.80;;
23718;SDS011;43322;52.230;5.702;2024-01-25T06:30:46;33.22;;;6.10;;
23718;SDS011;43322;52.230;5.702;2024-01-25T06:33:13;38.25;;;7.43;;
23718;SDS011;43322;52.230;5.702;2024-01-25T06:35:40;38.05;;;6.88;;
23718;SDS011;43322;52.230;5.702;2024-01-25T06:38:06;43.22;;;6.53;;
23718;SDS011;43322;52.230;5.702;2024-01-25T06:40:35;26.85;;;6.10;;
23718;SDS011;43322;52.230;5.702;2024-01-25T06:43:00;40.03;;;8.13;;
23718;SDS011;43322;52.230;5.702;2024-01-25T06:45:28;33.05;;;6.70;;
23718;SDS011;43322;52.230;5.702;2024-01-25T06:47:55;37.22;;;7.15;;
23718;SDS011;43322;52.230;5.702;2024-01-25T06:50:22;45.72;;;6.82;;
23718;SDS011;43322;52.230;5.702;2024-01-25T06:52:49;33.22;;;5.75;;
23718;SDS011;43322;52.230;5.702;2024-01-25T06:55:18;34.72;;;6.32;;
23718;SDS011;43322;52.230;5.702;2024-01-25T06:57:46;41.90;;;5.88;;
23718;SDS011;43322;52.230;5.702;2024-01-25T07:00:14;37.97;;;7.40;;
23718;SDS011;43322;52.230;5.702;2024-01-25T07:02:41;31.38;;;6.45;;
23718;SDS011;43322;52.230;5.702;2024-01-25T07:05:09;34.95;;;6.50;;
23718;SDS011;43322;52.230;5.702;2024-01-25T07:07:36;39.53;;;6.50;;
23718;SDS011;43322;52.230;5.702;2024-01-25T07:10:05;41.17;;;6.50;;
23718;SDS011;43322;52.230;5.702;2024-01-25T07:12:32;40.15;;;6.88;;
23718;SDS011;43322;52.230;5.702;2024-01-25T07:15:00;31.95;;;6.57;;
23718;SDS011;43322;52.230;5.702;2024-01-25T07:17:27;25.02;;;5.60;;
23718;SDS011;43322;52.230;5.702;2024-01-25T07:19:54;28.08;;;5.97;;
23718;SDS011;43322;52.230;5.702;2024-01-25T07:22:21;28.70;;;5.55;;
23718;SDS011;43322;52.230;5.702;2024-01-25T07:24:48;27.90;;;5.60;;
23718;SDS011;43322;52.230;5.702;2024-01-25T07:27:15;38.25;;;5.78;;
23718;SDS011;43322;52.230;5.702;2024-01-25T07:29:43;29.25;;;5.55;;
23718;SDS011;43322;52.230;5.702;2024-01-25T07:32:11;34.28;;;5.82;;
23718;SDS011;43322;52.230;5.702;2024-01-25T07:34:38;31.92;;;6.15;;
23718;SDS011;43322;52.230;5.702;2024-01-25T07:37:05;23.55;;;5.10;;
23718;SDS011;43322;52.230;5.702;2024-01-25T07:39:32;21.15;;;5.05;;
23718;SDS011;43322;52.230;5.702;2024-01-25T07:41:58;33.13;;;6.28;;
23718;SDS011;43322;52.230;5.702;2024-01-25T07:44:25;46.53;;;6.50;;
23718;SDS011;43322;52.230;5.702;2024-01-25T07:46:52;36.42;;;7.03;;
23718;SDS011;43322;52.230;5.702;2024-01-25T07:49:20;41.10;;;7.35;;
23718;SDS011;43322;52.230;5.702;2024-01-25T07:51:47;35.60;;;6.32;;
23718;SDS011;43322;52.230;5.702;2024-01-25T07:54:14;34.45;;;6.57;;
23718;SDS011;43322;52.230;5.702;2024-01-25T07:56:41;40.45;;;8.05;;
23718;SDS011;43322;52.230;5.702;2024-01-25T07:59:08;35.05;;;6.70;;
23718;SDS011;43322;52.230;5.702;2024-01-25T08:01:35;37.75;;;7.55;;
23718;SDS011;43322;52.230;5.702;2024-01-25T08:04:02;30.52;;;6.82;;
23718;SDS011;43322;52.230;5.702;2024-01-25T08:06:30;22.98;;;5.15;;
23718;SDS011;43322;52.230;5.702;2024-01-25T08:08:57;24.88;;;5.70;;
23718;SDS011;43322;52.230;5.702;2024-01-25T08:11:24;20.35;;;5.45;;
23718;SDS011;43322;52.230;5.702;2024-01-25T08:13:51;45.85;;;7.93;;
23718;SDS011;43322;52.230;5.702;2024-01-25T08:16:18;36.03;;;7.57;;
23718;SDS011;43322;52.230;5.702;2024-01-25T08:18:45;44.25;;;7.53;;
23718;SDS011;43322;52.230;5.702;2024-01-25T08:21:14;38.65;;;7.30;;
23718;SDS011;43322;52.230;5.702;2024-01-25T08:23:42;29.67;;;5.25;;
23718;SDS011;43322;52.230;5.702;2024-01-25T08:26:09;30.00;;;6.03;;
23718;SDS011;43322;52.230;5.702;2024-01-25T08:28:38;23.83;;;6.13;;
23718;SDS011;43322;52.230;5.702;2024-01-25T08:31:05;18.75;;;4.63;;
23718;SDS011;43322;52.230;5.702;2024-01-25T08:33:32;27.83;;;5.68;;
23718;SDS011;43322;52.230;5.702;2024-01-25T08:35:59;25.65;;;5.10;;
23718;SDS011;43322;52.230;5.702;2024-01-25T08:38:26;32.40;;;5.38;;
23718;SDS011;43322;52.230;5.702;2024-01-25T08:40:54;38.67;;;7.13;;
23718;SDS011;43322;52.230;5.702;2024-01-25T08:43:21;25.00;;;5.13;;
23718;SDS011;43322;52.230;5.702;2024-01-25T08:45:48;35.72;;;7.82;;
23718;SDS011;43322;52.230;5.702;2024-01-25T08:48:14;42.47;;;8.75;;
23718;SDS011;43322;52.230;5.702;2024-01-25T08:50:41;35.75;;;6.53;;
23718;SDS011;43322;52.230;5.702;2024-01-25T08:53:08;35.53;;;7.70;;
23718;SDS011;43322;52.230;5.702;2024-01-25T08:55:35;44.58;;;9.93;;
23718;SDS011;43322;52.230;5.702;2024-01-25T08:58:03;54.20;;;11.00;;
23718;SDS011;43322;52.230;5.702;2024-01-25T09:00:30;39.35;;;10.20;;
23718;SDS011;43322;52.230;5.702;2024-01-25T09:02:57;37.13;;;9.25;;
23718;SDS011;43322;52.230;5.702;2024-01-25T09:05:24;42.95;;;8.93;;
23718;SDS011;43322;52.230;5.702;2024-01-25T09:07:53;47.00;;;9.55;;
23718;SDS011;43322;52.230;5.702;2024-01-25T09:10:20;42.47;;;9.60;;
23718;SDS011;43322;52.230;5.702;2024-01-25T09:12:47;37.22;;;9.52;;
23718;SDS011;43322;52.230;5.702;2024-01-25T09:15:15;41.72;;;9.68;;
23718;SDS011;43322;52.230;5.702;2024-01-25T09:17:42;46.67;;;9.20;;
23718;SDS011;43322;52.230;5.702;2024-01-25T09:20:10;47.10;;;10.30;;
23718;SDS011;43322;52.230;5.702;2024-01-25T09:22:37;30.38;;;9.15;;
23718;SDS011;43322;52.230;5.702;2024-01-25T09:25:04;40.15;;;10.77;;
23718;SDS011;43322;52.230;5.702;2024-01-25T09:27:32;43.40;;;10.55;;
23718;SDS011;43322;52.230;5.702;2024-01-25T09:29:59;38.17;;;8.75;;
23718;SDS011;43322;52.230;5.702;2024-01-25T09:32:27;36.13;;;9.38;;
23718;SDS011;43322;52.230;5.702;2024-01-25T09:34:54;40.80;;;9.32;;
23718;SDS011;43322;52.230;5.702;2024-01-25T09:37:20;44.42;;;10.93;;
23718;SDS011;43322;52.230;5.702;2024-01-25T09:39:49;40.83;;;9.98;;
23718;SDS011;43322;52.230;5.702;2024-01-25T09:42:16;30.95;;;9.23;;
23718;SDS011;43322;52.230;5.702;2024-01-25T09:44:43;51.03;;;10.98;;
23718;SDS011;43322;52.230;5.702;2024-01-25T09:47:10;47.90;;;10.57;;
23718;SDS011;43322;52.230;5.702;2024-01-25T09:49:38;35.88;;;10.90;;
23718;SDS011;43322;52.230;5.702;2024-01-25T09:52:07;38.45;;;10.38;;
23718;SDS011;43322;52.230;5.702;2024-01-25T09:54:38;41.08;;;9.95;;
23718;SDS011;43322;52.230;5.702;2024-01-25T09:57:06;29.48;;;9.20;;
23718;SDS011;43322;52.230;5.702;2024-01-25T09:59:37;34.10;;;9.48;;
23718;SDS011;43322;52.230;5.702;2024-01-25T10:02:04;37.38;;;9.65;;
23718;SDS011;43322;52.230;5.702;2024-01-25T10:04:31;44.83;;;10.57;;
23718;SDS011;43322;52.230;5.702;2024-01-25T10:06:59;31.02;;;9.40;;
23718;SDS011;43322;52.230;5.702;2024-01-25T10:09:26;35.03;;;9.45;;
23718;SDS011;43322;52.230;5.702;2024-01-25T10:11:53;30.42;;;10.20;;
23718;SDS011;43322;52.230;5.702;2024-01-25T10:14:20;34.13;;;9.70;;
23718;SDS011;43322;52.230;5.702;2024-01-25T10:16:46;41.15;;;10.20;;
23718;SDS011;43322;52.230;5.702;2024-01-25T10:19:13;32.92;;;9.02;;
23718;SDS011;43322;52.230;5.702;2024-01-25T10:21:41;45.97;;;10.55;;
23718;SDS011;43322;52.230;5.702;2024-01-25T10:24:09;46.80;;;10.15;;
23718;SDS011;43322;52.230;5.702;2024-01-25T10:26:36;45.75;;;10.32;;
23718;SDS011;43322;52.230;5.702;2024-01-25T10:29:03;34.85;;;10.02;;
23718;SDS011;43322;52.230;5.702;2024-01-25T10:31:30;41.85;;;10.98;;
23718;SDS011;43322;52.230;5.702;2024-01-25T10:33:57;39.03;;;10.35;;
23718;SDS011;43322;52.230;5.702;2024-01-25T10:36:26;58.15;;;11.57;;
23718;SDS011;43322;52.230;5.702;2024-01-25T10:38:53;53.03;;;11.45;;
23718;SDS011;43322;52.230;5.702;2024-01-25T10:41:22;47.58;;;11.55;;
23718;SDS011;43322;52.230;5.702;2024-01-25T10:43:51;50.35;;;10.23;;
23718;SDS011;43322;52.230;5.702;2024-01-25T10:46:18;32.20;;;8.48;;
23718;SDS011;43322;52.230;5.702;2024-01-25T10:48:45;38.42;;;8.88;;
23718;SDS011;43322;52.230;5.702;2024-01-25T10:51:13;49.80;;;9.73;;
23718;SDS011;43322;52.230;5.702;2024-01-25T10:53:43;41.78;;;10.32;;
23718;SDS011;43322;52.230;5.702;2024-01-25T10:56:11;31.15;;;9.85;;
23718;SDS011;43322;52.230;5.702;2024-01-25T10:58:41;37.42;;;8.98;;
23718;SDS011;43322;52.230;5.702;2024-01-25T11:01:09;38.88;;;9.00;;
23718;SDS011;43322;52.230;5.702;2024-01-25T11:03:36;31.38;;;9.00;;
23718;SDS011;43322;52.230;5.702;2024-01-25T11:06:08;29.83;;;8.45;;
23718;SDS011;43322;52.230;5.702;2024-01-25T11:08:35;35.55;;;8.98;;
23718;SDS011;43322;52.230;5.702;2024-01-25T11:11:05;39.15;;;9.57;;
23718;SDS011;43322;52.230;5.702;2024-01-25T11:13:34;30.55;;;8.80;;
23718;SDS011;43322;52.230;5.702;2024-01-25T11:16:12;29.35;;;9.07;;
23718;SDS011;43322;52.230;5.702;2024-01-25T11:18:47;40.67;;;9.15;;
23718;SDS011;43322;52.230;5.702;2024-01-25T11:21:21;35.75;;;8.30;;
23718;SDS011;43322;52.230;5.702;2024-01-25T11:23:58;24.75;;;8.40;;
23718;SDS011;43322;52.230;5.702;2024-01-25T11:26:25;35.00;;;9.10;;
23718;SDS011;43322;52.230;5.702;2024-01-25T11:28:52;38.67;;;9.63;;
23718;SDS011;43322;52.230;5.702;2024-01-25T11:31:20;41.65;;;9.63;;
23718;SDS011;43322;52.230;5.702;2024-01-25T11:33:48;32.88;;;7.85;;
23718;SDS011;43322;52.230;5.702;2024-01-25T11:36:16;36.17;;;8.73;;
23718;SDS011;43322;52.230;5.702;2024-01-25T11:38:46;37.03;;;9.02;;
23718;SDS011;43322;52.230;5.702;2024-01-25T11:41:13;34.78;;;8.98;;
23718;SDS011;43322;52.230;5.702;2024-01-25T11:43:40;33.95;;;8.88;;
23718;SDS011;43322;52.230;5.702;2024-01-25T11:46:07;30.23;;;8.13;;
23718;SDS011;43322;52.230;5.702;2024-01-25T11:48:39;47.13;;;9.73;;
23718;SDS011;43322;52.230;5.702;2024-01-25T11:51:06;47.47;;;9.88;;
23718;SDS011;43322;52.230;5.702;2024-01-25T11:53:34;37.90;;;9.25;;
23718;SDS011;43322;52.230;5.702;2024-01-25T11:56:01;36.13;;;8.82;;
23718;SDS011;43322;52.230;5.702;2024-01-25T11:58:29;37.92;;;9.57;;
23718;SDS011;43322;52.230;5.702;2024-01-25T12:00:56;31.48;;;7.82;;
23718;SDS011;43322;52.230;5.702;2024-01-25T12:03:23;35.90;;;8.93;;
23718;SDS011;43322;52.230;5.702;2024-01-25T12:05:51;33.65;;;8.25;;
23718;SDS011;43322;52.230;5.702;2024-01-25T12:08:19;49.72;;;9.02;;
23718;SDS011;43322;52.230;5.702;2024-01-25T12:10:46;31.25;;;7.80;;
23718;SDS011;43322;52.230;5.702;2024-01-25T12:13:16;26.17;;;8.65;;
23718;SDS011;43322;52.230;5.702;2024-01-25T12:15:43;39.53;;;8.00;;
23718;SDS011;43322;52.230;5.702;2024-01-25T12:18:10;29.30;;;7.88;;
23718;SDS011;43322;52.230;5.702;2024-01-25T12:20:36;30.08;;;7.80;;
23718;SDS011;43322;52.230;5.702;2024-01-25T12:23:05;36.03;;;8.68;;
23718;SDS011;43322;52.230;5.702;2024-01-25T12:25:38;37.85;;;8.00;;
23718;SDS011;43322;52.230;5.702;2024-01-25T12:28:05;34.10;;;8.50;;
23718;SDS011;43322;52.230;5.702;2024-01-25T12:30:32;43.20;;;8.68;;
23718;SDS011;43322;52.230;5.702;2024-01-25T12:32:59;34.47;;;7.63;;
23718;SDS011;43322;52.230;5.702;2024-01-25T12:35:26;29.50;;;8.27;;
23718;SDS011;43322;52.230;5.702;2024-01-25T12:37:53;39.78;;;8.48;;
23718;SDS011;43322;52.230;5.702;2024-01-25T12:40:21;35.00;;;7.63;;
23718;SDS011;43322;52.230;5.702;2024-01-25T12:42:48;28.38;;;6.75;;
23718;SDS011;43322;52.230;5.702;2024-01-25T12:45:15;30.45;;;7.22;;
23718;SDS011;43322;52.230;5.702;2024-01-25T12:47:42;31.48;;;7.93;;
23718;SDS011;43322;52.230;5.702;2024-01-25T12:50:08;33.00;;;8.07;;
23718;SDS011;43322;52.230;5.702;2024-01-25T12:52:35;28.80;;;6.72;;
23718;SDS011;43322;52.230;5.702;2024-01-25T12:55:02;35.17;;;7.53;;
23718;SDS011;43322;52.230;5.702;2024-01-25T12:57:31;24.08;;;6.82;;
23718;SDS011;43322;52.230;5.702;2024-01-25T12:59:59;34.08;;;7.43;;
23718;SDS011;43322;52.230;5.702;2024-01-25T13:02:26;39.92;;;8.77;;
23718;SDS011;43322;52.230;5.702;2024-01-25T13:04:52;33.53;;;7.57;;
23718;SDS011;43322;52.230;5.702;2024-01-25T13:07:19;27.63;;;6.75;;
23718;SDS011;43322;52.230;5.702;2024-01-25T13:09:46;33.38;;;7.38;;
23718;SDS011;43322;52.230;5.702;2024-01-25T13:12:13;34.47;;;7.93;;
23718;SDS011;43322;52.230;5.702;2024-01-25T13:14:41;31.48;;;7.57;;
23718;SDS011;43322;52.230;5.702;2024-01-25T13:17:08;35.47;;;8.07;;
23718;SDS011;43322;52.230;5.702;2024-01-25T13:19:35;44.80;;;9.25;;
23718;SDS011;43322;52.230;5.702;2024-01-25T13:22:02;28.10;;;7.25;;
23718;SDS011;43322;52.230;5.702;2024-01-25T13:24:29;32.53;;;7.55;;
23718;SDS011;43322;52.230;5.702;2024-01-25T13:26:55;28.35;;;7.45;;
23718;SDS011;43322;52.230;5.702;2024-01-25T13:29:22;34.70;;;8.23;;
23718;SDS011;43322;52.230;5.702;2024-01-25T13:31:50;43.83;;;9.50;;
23718;SDS011;43322;52.230;5.702;2024-01-25T13:34:17;36.03;;;8.63;;
23718;SDS011;43322;52.230;5.702;2024-01-25T13:36:44;37.97;;;8.88;;
23718;SDS011;43322;52.230;5.702;2024-01-25T13:39:11;43.00;;;7.78;;
23718;SDS011;43322;52.230;5.702;2024-01-25T13:41:37;32.63;;;8.13;;
23718;SDS011;43322;52.230;5.702;2024-01-25T13:44:04;39.15;;;8.70;;
23718;SDS011;43322;52.230;5.702;2024-01-25T13:46:31;30.10;;;8.07;;
23718;SDS011;43322;52.230;5.702;2024-01-25T13:48:59;35.40;;;8.52;;
23718;SDS011;43322;52.230;5.702;2024-01-25T13:51:26;39.80;;;9.32;;
23718;SDS011;43322;52.230;5.702;2024-01-25T13:53:53;32.17;;;9.23;;
23718;SDS011;43322;52.230;5.702;2024-01-25T13:56:19;37.58;;;9.73;;
23718;SDS011;43322;52.230;5.702;2024-01-25T13:58:46;43.88;;;11.25;;
23718;SDS011;43322;52.230;5.702;2024-01-25T14:01:13;46.95;;;10.50;;
23718;SDS011;43322;52.230;5.702;2024-01-25T14:03:40;37.42;;;10.65;;
23718;SDS011;43322;52.230;5.702;2024-01-25T14:06:08;29.88;;;10.15;;
23718;SDS011;43322;52.230;5.702;2024-01-25T14:08:35;36.72;;;9.93;;
23718;SDS011;43322;52.230;5.702;2024-01-25T14:11:02;39.97;;;10.40;;
23718;SDS011;43322;52.230;5.702;2024-01-25T14:13:30;48.08;;;10.85;;
23718;SDS011;43322;52.230;5.702;2024-01-25T14:15:57;39.13;;;10.75;;
23718;SDS011;43322;52.230;5.702;2024-01-25T14:18:26;37.40;;;9.75;;
23718;SDS011;43322;52.230;5.702;2024-01-25T14:20:53;48.55;;;12.45;;
23718;SDS011;43322;52.230;5.702;2024-01-25T14:23:21;42.10;;;11.07;;
23718;SDS011;43322;52.230;5.702;2024-01-25T14:25:48;37.58;;;11.23;;
23718;SDS011;43322;52.230;5.702;2024-01-25T14:28:15;43.00;;;11.55;;
23718;SDS011;43322;52.230;5.702;2024-01-25T14:30:42;39.45;;;10.80;;
23718;SDS011;43322;52.230;5.702;2024-01-25T14:33:11;34.25;;;10.68;;